Union Point, Georgia
Current Conditions -  °F | °C
As of 6:55 PM on Saturday 22 Nov 2014 (Local Time) from K3J7 Reporting Station
Overcast Overcast  
Wind Chill: 57°   Ceiling: 4600
Heat Index: 57°   Visibility: 10mi
Dew Point: 32°   Wind: 0mph
Humidity: 38%   Direction: NA
Pressure: 30.26"   Gusts: NA
Location:  33.62°N, 83.07°W
Report Text: K3J7 222355Z AUTO 00000KT 10SM BKN046 BKN055 OVC070 14/00 A3026 RMK AO2
Loading
Personal Weather Stations






























Interactive Weather Map New forecast layout! Learn more

10-Day Weather Forecast

Advertisements
Track Severe Weather on mobile